Time;durP1;ratioP1;P1;durP2;ratioP2;P2;SDS_P1;SDS_P2;PMS_P1;PMS_P2;Temp;Humidity;BMP_temperature;BMP_pressure;BME280_temperature;BME280_humidity;BME280_pressure;Samples;Min_cycle;Max_cycle;Signal;HPM_P1;HPM_P2
2022/04/14 00:00:53;;;;;;;121.38;52.05;;;9.20;99.90;;;;;;5035439;28;20057;-67
2022/04/14 00:03:19;;;;;;;101.10;47.08;;;9.20;99.90;;;;;;5034966;28;20021;-67
2022/04/14 00:05:45;;;;;;;113.43;48.13;;;9.20;99.90;;;;;;5034960;28;20039;-67
2022/04/14 00:08:11;;;;;;;110.72;47.25;;;9.20;99.90;;;;;;5034884;28;20029;-67
2022/04/14 00:10:37;;;;;;;119.05;48.50;;;9.10;99.90;;;;;;5034983;28;20512;-67
2022/04/14 00:13:02;;;;;;;121.28;49.42;;;9.20;99.90;;;;;;5034052;28;20032;-67
2022/04/14 00:15:28;;;;;;;126.93;50.30;;;9.20;99.90;;;;;;5034195;28;20021;-67
2022/04/14 00:17:54;;;;;;;129.80;51.80;;;9.10;99.90;;;;;;5034788;28;20029;-66
2022/04/14 00:20:20;;;;;;;136.48;55.85;;;9.20;99.90;;;;;;5034128;28;20021;-67
2022/04/14 00:22:45;;;;;;;126.80;51.47;;;9.20;99.90;;;;;;5034216;28;20389;-67
2022/04/14 00:25:11;;;;;;;128.48;48.28;;;9.10;99.90;;;;;;5034524;28;20096;-67
2022/04/14 00:27:38;;;;;;;123.50;51.28;;;9.20;99.90;;;;;;5034754;28;20094;-67
2022/04/14 00:30:04;;;;;;;117.18;48.90;;;9.10;99.90;;;;;;5034542;28;20033;-67
2022/04/14 00:32:33;;;;;;;109.93;49.05;;;9.10;99.90;;;;;;5033786;28;20132;-67
2022/04/14 00:34:58;;;;;;;114.80;50.22;;;9.00;99.90;;;;;;5034306;28;20147;-67
2022/04/14 00:37:24;;;;;;;115.53;49.10;;;9.10;99.90;;;;;;5034155;28;20049;-67
2022/04/14 00:39:51;;;;;;;133.13;50.20;;;9.10;99.90;;;;;;5033714;28;20044;-67
2022/04/14 00:42:17;;;;;;;131.32;51.50;;;9.10;99.90;;;;;;5034178;28;20021;-67
2022/04/14 00:44:43;;;;;;;127.80;51.65;;;9.10;99.90;;;;;;5034148;28;20021;-67
2022/04/14 00:47:12;;;;;;;139.18;50.95;;;9.10;99.90;;;;;;5034038;28;20022;-67
2022/04/14 00:49:39;;;;;;;110.47;49.55;;;9.10;99.90;;;;;;5034016;28;20025;-67
2022/04/14 00:52:06;;;;;;;122.55;48.53;;;9.10;99.90;;;;;;5049876;28;20103;-67
2022/04/14 00:54:32;;;;;;;128.35;50.67;;;9.10;99.90;;;;;;5033420;28;20017;-67
2022/04/14 00:56:58;;;;;;;125.30;49.72;;;9.10;99.90;;;;;;5033859;28;20059;-67
2022/04/14 00:59:25;;;;;;;104.65;48.08;;;9.00;99.90;;;;;;5033911;28;20029;-67
2022/04/14 01:01:51;;;;;;;110.50;46.33;;;8.90;99.90;;;;;;5033895;28;20409;-67
2022/04/14 01:04:17;;;;;;;89.32;44.10;;;8.90;99.90;;;;;;5033339;28;20029;-67
2022/04/14 01:06:43;;;;;;;100.78;44.88;;;8.90;99.90;;;;;;5033854;28;20018;-67
2022/04/14 01:09:16;;;;;;;124.10;48.70;;;8.90;99.90;;;;;;5033776;28;20381;-67
2022/04/14 01:11:43;;;;;;;110.82;47.05;;;8.80;99.90;;;;;;5034008;28;20029;-67
2022/04/14 01:14:24;;;;;;;102.80;45.83;;;8.70;99.90;;;;;;5033844;28;20022;-67
2022/04/14 01:16:49;;;;;;;95.50;46.78;;;8.50;99.90;;;;;;5033260;28;20033;-67
2022/04/14 01:19:15;;;;;;;113.47;49.55;;;8.50;99.90;;;;;;5033722;28;20025;-67
2022/04/14 01:21:45;;;;;;;102.85;46.00;;;8.50;99.90;;;;;;5033578;28;20486;-67
2022/04/14 01:24:11;;;;;;;97.88;43.15;;;8.40;99.90;;;;;;5033929;28;20497;-67
2022/04/14 01:26:38;;;;;;;105.18;45.28;;;8.30;99.90;;;;;;5033753;28;20033;-67
2022/04/14 01:29:04;;;;;;;100.15;43.10;;;8.20;99.90;;;;;;5032786;28;20040;-67
2022/04/14 01:31:30;;;;;;;103.50;44.20;;;8.10;99.90;;;;;;5033979;28;20022;-67
2022/04/14 01:33:55;;;;;;;94.97;45.92;;;8.10;99.90;;;;;;5033967;28;20021;-67
2022/04/14 01:36:21;;;;;;;87.63;41.78;;;8.00;99.90;;;;;;5033633;28;20396;-67
2022/04/14 01:38:47;;;;;;;106.40;47.80;;;8.00;99.90;;;;;;5033352;28;20021;-67
2022/04/14 01:41:12;;;;;;;96.38;47.22;;;7.90;99.90;;;;;;5032971;28;20049;-67
2022/04/14 01:43:38;;;;;;;103.53;47.15;;;7.90;99.90;;;;;;5033729;28;20095;-67
2022/04/14 01:46:08;;;;;;;115.38;50.30;;;7.90;99.90;;;;;;5033388;28;20485;-67
2022/04/14 01:48:34;;;;;;;128.50;53.53;;;7.90;99.90;;;;;;5032948;28;20057;-67
2022/04/14 01:51:00;;;;;;;126.65;54.45;;;8.00;99.90;;;;;;5033407;28;20084;-67
2022/04/14 01:53:26;;;;;;;128.60;50.78;;;8.00;99.90;;;;;;5033248;28;20025;-67
2022/04/14 01:55:54;;;;;;;139.52;50.30;;;7.90;99.90;;;;;;5033520;28;20030;-67
2022/04/14 01:58:20;;;;;;;121.85;53.58;;;7.80;99.90;;;;;;5033405;28;20361;-67
2022/04/14 02:00:45;;;;;;;116.75;49.72;;;7.80;99.90;;;;;;5033142;28;20038;-67
2022/04/14 02:03:11;;;;;;;130.35;53.10;;;7.80;99.90;;;;;;5032725;28;20036;-67
2022/04/14 02:05:36;;;;;;;116.80;50.97;;;7.80;99.90;;;;;;5048968;28;20022;-67
2022/04/14 02:08:02;;;;;;;123.78;51.58;;;7.80;99.90;;;;;;5033033;28;20029;-67
2022/04/14 02:10:27;;;;;;;112.55;52.95;;;7.80;99.90;;;;;;5033037;28;20153;-67
2022/04/14 02:12:53;;;;;;;121.28;50.72;;;7.80;99.90;;;;;;5033275;28;20457;-67
2022/04/14 02:15:19;;;;;;;130.55;56.58;;;7.90;99.90;;;;;;5033761;28;20049;-67
2022/04/14 02:17:45;;;;;;;131.25;56.70;;;7.90;99.90;;;;;;5032657;28;20072;-67
2022/04/14 02:20:11;;;;;;;145.35;56.08;;;7.90;99.90;;;;;;5033292;28;20458;-67
2022/04/14 02:22:40;;;;;;;115.07;52.47;;;7.90;99.90;;;;;;5032930;28;20060;-67
2022/04/14 02:25:07;;;;;;;111.95;53.83;;;7.90;99.90;;;;;;5033076;28;20061;-67
2022/04/14 02:27:32;;;;;;;148.25;57.40;;;8.00;99.90;;;;;;5033141;28;20097;-67
2022/04/14 02:29:58;;;;;;;124.18;58.58;;;8.00;99.90;;;;;;5032968;28;20545;-67
2022/04/14 02:32:23;;;;;;;109.40;53.03;;;8.10;99.90;;;;;;5032361;28;20028;-67
2022/04/14 02:34:49;;;;;;;120.68;52.92;;;8.20;99.90;;;;;;5032830;28;20064;-67
2022/04/14 02:37:14;;;;;;;129.23;56.70;;;8.20;99.90;;;;;;5049200;28;20017;-67
2022/04/14 02:39:40;;;;;;;113.53;52.08;;;8.30;99.90;;;;;;5036341;28;20021;-67
2022/04/14 02:42:06;;;;;;;111.85;56.45;;;8.30;99.90;;;;;;5036336;28;20040;-67
2022/04/14 02:44:31;;;;;;;128.30;56.50;;;8.30;99.90;;;;;;5036093;28;20517;-67
2022/04/14 02:46:57;;;;;;;131.90;56.65;;;8.40;99.90;;;;;;5035889;28;20393;-67
2022/04/14 02:49:23;;;;;;;134.55;57.20;;;8.40;99.90;;;;;;5036092;28;20478;-67
2022/04/14 02:51:49;;;;;;;146.07;59.70;;;8.50;99.90;;;;;;5036117;28;20053;-67
2022/04/14 02:54:14;;;;;;;121.88;58.65;;;8.50;99.90;;;;;;5036107;28;20028;-67
2022/04/14 02:56:40;;;;;;;122.88;55.22;;;8.50;99.90;;;;;;5035985;28;20021;-67
2022/04/14 02:59:06;;;;;;;129.15;61.38;;;8.50;99.90;;;;;;5035578;28;20034;-67
2022/04/14 03:01:31;;;;;;;135.68;60.15;;;8.60;99.90;;;;;;5036321;28;20029;-67
2022/04/14 03:03:57;;;;;;;136.40;60.05;;;8.60;99.90;;;;;;5035961;28;20032;-67
2022/04/14 03:06:22;;;;;;;139.90;61.35;;;8.70;99.90;;;;;;5035870;28;20023;-67
2022/04/14 03:08:48;;;;;;;143.18;59.63;;;8.80;99.90;;;;;;5035899;28;20029;-67
2022/04/14 03:11:13;;;;;;;158.60;63.90;;;8.80;99.90;;;;;;5035375;28;20025;-67
2022/04/14 03:13:40;;;;;;;146.90;65.68;;;8.80;99.90;;;;;;5035770;28;20474;-67
2022/04/14 03:16:05;;;;;;;141.52;60.63;;;8.90;99.90;;;;;;5035637;28;20041;-67
2022/04/14 03:18:31;;;;;;;126.45;62.13;;;8.90;99.90;;;;;;5035773;28;20030;-67
2022/04/14 03:20:56;;;;;;;133.23;62.30;;;8.90;99.90;;;;;;5035623;28;20030;-67
2022/04/14 03:23:23;;;;;;;144.73;65.55;;;8.80;99.90;;;;;;5035255;28;20060;-67
2022/04/14 03:25:49;;;;;;;141.60;61.60;;;8.90;99.90;;;;;;5035430;28;20112;-67
2022/04/14 03:28:15;;;;;;;131.10;61.45;;;8.90;99.90;;;;;;5035489;28;20049;-67
2022/04/14 03:30:40;;;;;;;135.30;62.25;;;8.80;99.90;;;;;;5035241;28;20612;-67
2022/04/14 03:33:06;;;;;;;136.10;60.83;;;8.80;99.90;;;;;;5035685;28;20028;-67
2022/04/14 03:35:32;;;;;;;144.73;62.22;;;8.80;99.90;;;;;;5035585;28;20026;-67
2022/04/14 03:37:57;;;;;;;143.52;60.78;;;8.90;99.90;;;;;;5035018;28;20461;-67
2022/04/14 03:40:23;;;;;;;140.65;63.22;;;9.00;99.90;;;;;;5035292;28;20032;-67
2022/04/14 03:42:48;;;;;;;150.38;61.85;;;8.90;99.90;;;;;;5035223;28;20029;-67
2022/04/14 03:45:14;;;;;;;134.50;59.75;;;9.00;99.90;;;;;;5035308;28;20033;-67
2022/04/14 03:47:40;;;;;;;136.13;59.05;;;9.10;99.90;;;;;;5034772;28;20030;-67
2022/04/14 03:50:06;;;;;;;130.93;61.83;;;9.10;99.90;;;;;;5035085;28;20104;-67
2022/04/14 03:52:32;;;;;;;132.20;56.95;;;9.10;99.90;;;;;;5034952;28;20072;-67
2022/04/14 03:54:57;;;;;;;138.05;57.90;;;9.10;99.90;;;;;;5035383;28;20021;-67
2022/04/14 03:57:24;;;;;;;131.88;57.95;;;9.10;99.90;;;;;;5049825;28;20112;-67
2022/04/14 03:59:49;;;;;;;126.07;56.53;;;9.10;99.90;;;;;;5035126;28;20060;-67
2022/04/14 04:02:15;;;;;;;138.38;56.75;;;9.10;99.90;;;;;;5034879;28;20030;-67
2022/04/14 04:04:41;;;;;;;128.93;55.67;;;9.20;99.90;;;;;;5035185;28;20362;-67
2022/04/14 04:07:07;;;;;;;125.32;53.20;;;9.20;99.90;;;;;;5035071;28;20030;-67
2022/04/14 04:09:33;;;;;;;116.85;51.97;;;9.20;99.90;;;;;;5034699;28;20025;-67
2022/04/14 04:11:59;;;;;;;128.45;56.05;;;9.20;99.90;;;;;;5034576;28;20045;-67
2022/04/14 04:14:25;;;;;;;104.97;51.72;;;9.20;99.90;;;;;;5034839;28;20025;-67
2022/04/14 04:16:50;;;;;;;124.68;53.70;;;9.20;99.90;;;;;;5034860;28;20025;-67
2022/04/14 04:19:16;;;;;;;131.90;53.40;;;9.20;99.90;;;;;;5034896;28;20029;-67
2022/04/14 04:21:42;;;;;;;119.53;53.38;;;9.20;99.90;;;;;;5034624;28;20021;-67
2022/04/14 04:24:08;;;;;;;129.27;54.90;;;9.10;99.90;;;;;;5034230;28;20026;-67
2022/04/14 04:26:33;;;;;;;123.32;53.92;;;9.10;99.90;;;;;;5034515;28;20069;-67
2022/04/14 04:28:59;;;;;;;111.22;53.33;;;9.10;99.90;;;;;;5034520;28;20030;-67
2022/04/14 04:31:24;;;;;;;109.25;56.13;;;9.10;99.90;;;;;;5034652;28;20025;-67
2022/04/14 04:33:51;;;;;;;126.78;57.20;;;9.20;99.90;;;;;;5034711;28;20021;-67
2022/04/14 04:36:20;;;;;;;122.03;57.05;;;9.20;99.90;;;;;;5048970;28;20469;-67
2022/04/14 04:38:46;;;;;;;119.57;56.72;;;9.20;99.90;;;;;;5034250;28;20072;-67
2022/04/14 04:41:11;;;;;;;137.57;58.63;;;9.20;99.90;;;;;;5034240;28;20437;-67
2022/04/14 04:43:37;;;;;;;138.43;59.30;;;9.20;99.90;;;;;;5034484;28;20105;-67
2022/04/14 04:46:02;;;;;;;136.82;61.60;;;9.20;99.90;;;;;;5034074;28;20021;-67
2022/04/14 04:48:28;;;;;;;128.85;60.88;;;9.20;99.90;;;;;;5033691;28;20041;-67
2022/04/14 04:50:54;;;;;;;153.88;63.17;;;9.20;99.90;;;;;;5034092;28;20033;-67
2022/04/14 04:53:20;;;;;;;160.00;64.90;;;9.10;99.90;;;;;;5034240;28;20053;-67
2022/04/14 04:55:45;;;;;;;158.93;64.00;;;9.10;99.90;;;;;;5033966;28;20082;-67
2022/04/14 04:58:11;;;;;;;143.00;63.40;;;9.10;99.90;;;;;;5033995;28;20068;-67
2022/04/14 05:00:37;;;;;;;165.13;66.57;;;9.10;99.90;;;;;;5033013;28;20022;-67
2022/04/14 05:03:08;;;;;;;159.30;65.50;;;9.10;99.90;;;;;;5033867;28;20026;-67
2022/04/14 05:05:33;;;;;;;182.52;68.07;;;9.10;99.90;;;;;;5033908;28;20030;-67
2022/04/14 05:07:59;;;;;;;142.85;61.65;;;9.10;99.90;;;;;;5033294;28;20508;-67
2022/04/14 05:10:24;;;;;;;155.23;65.15;;;9.10;99.90;;;;;;5033620;28;20485;-67
2022/04/14 05:12:50;;;;;;;145.57;62.15;;;9.10;99.90;;;;;;5033641;28;20385;-67
2022/04/14 05:15:16;;;;;;;147.15;62.45;;;9.10;99.90;;;;;;5033838;28;20503;-67
2022/04/14 05:17:41;;;;;;;151.38;61.92;;;9.10;99.90;;;;;;5049765;28;20025;-65
2022/04/14 05:20:07;;;;;;;137.32;58.83;;;9.10;99.90;;;;;;5033014;28;20017;-65
2022/04/14 05:22:33;;;;;;;138.93;57.53;;;9.10;99.90;;;;;;5033710;28;20561;-65
2022/04/14 05:24:59;;;;;;;143.05;56.97;;;9.10;99.90;;;;;;5033558;28;20108;-65
2022/04/14 05:27:24;;;;;;;134.60;52.83;;;9.10;99.90;;;;;;5033148;28;20021;-66
2022/04/14 05:29:50;;;;;;;147.02;56.35;;;9.10;99.90;;;;;;5033203;28;20432;-66
2022/04/14 05:32:15;;;;;;;133.32;53.90;;;9.00;99.90;;;;;;5033413;28;20113;-66
2022/04/14 05:34:41;;;;;;;132.60;54.10;;;9.00;99.90;;;;;;5033378;28;20500;-65
2022/04/14 05:37:07;;;;;;;132.20;54.13;;;9.10;99.90;;;;;;5033559;28;20112;-66
2022/04/14 05:39:33;;;;;;;139.35;60.90;;;9.00;99.90;;;;;;5033610;28;20037;-66
2022/04/14 05:41:59;;;;;;;151.30;60.05;;;9.00;99.90;;;;;;5032859;28;20366;-66
2022/04/14 05:44:24;;;;;;;134.15;54.70;;;9.00;99.90;;;;;;5033362;28;20483;-66
2022/04/14 05:46:50;;;;;;;140.50;56.50;;;9.00;99.90;;;;;;5033756;28;20468;-66
2022/04/14 05:49:15;;;;;;;117.80;50.72;;;9.10;99.90;;;;;;5033401;28;20110;-65
2022/04/14 05:51:41;;;;;;;128.20;51.80;;;9.20;99.90;;;;;;5033204;28;20149;-65
2022/04/14 05:54:07;;;;;;;121.80;49.50;;;9.20;99.90;;;;;;5033253;28;20031;-66
2022/04/14 05:56:32;;;;;;;135.68;54.88;;;9.20;99.90;;;;;;5032579;28;20030;-66
2022/04/14 05:58:59;;;;;;;127.78;52.20;;;9.10;99.90;;;;;;5033093;28;20024;-66
2022/04/14 06:01:25;;;;;;;143.85;54.58;;;9.20;99.90;;;;;;5048436;28;20049;-66
2022/04/14 06:03:51;;;;;;;137.63;52.55;;;9.20;99.90;;;;;;5048441;28;20029;-66
2022/04/14 06:06:17;;;;;;;137.80;52.10;;;9.20;99.90;;;;;;5032966;28;20504;-66
2022/04/14 06:08:43;;;;;;;142.95;50.90;;;9.10;99.90;;;;;;5032647;28;20430;-66
2022/04/14 06:11:09;;;;;;;151.50;54.00;;;9.10;99.90;;;;;;5048225;28;20022;-66
2022/04/14 06:13:34;;;;;;;127.93;51.15;;;9.20;99.90;;;;;;5036341;28;20022;-65
2022/04/14 06:16:00;;;;;;;123.80;48.78;;;9.20;99.90;;;;;;5037023;28;20021;-66
2022/04/14 06:18:26;;;;;;;127.78;50.70;;;9.30;99.90;;;;;;5036327;28;20025;-66
2022/04/14 06:20:54;;;;;;;138.32;52.80;;;9.30;99.90;;;;;;5037007;28;20487;-66
2022/04/14 06:23:20;;;;;;;141.60;52.75;;;9.40;99.90;;;;;;5036738;28;20564;-66
2022/04/14 06:25:49;;;;;;;131.70;51.58;;;9.50;99.90;;;;;;5036733;28;20084;-67
2022/04/14 06:28:18;;;;;;;121.38;48.00;;;9.50;99.90;;;;;;5036990;28;20485;-66
2022/04/14 06:30:46;;;;;;;122.75;47.75;;;9.50;99.90;;;;;;5036486;28;20064;-66
2022/04/14 06:33:11;;;;;;;142.60;51.45;;;9.50;99.90;;;;;;5036892;28;20548;-66
2022/04/14 06:35:37;;;;;;;128.65;48.55;;;9.40;99.90;;;;;;5036738;28;20220;-66
2022/04/14 06:38:03;;;;;;;129.90;50.83;;;9.50;99.90;;;;;;5036795;28;20022;-66
2022/04/14 06:40:28;;;;;;;131.85;49.58;;;9.60;99.90;;;;;;5035864;28;20022;-66
2022/04/14 06:42:54;;;;;;;132.98;49.75;;;9.70;99.90;;;;;;5036420;28;20111;-66
2022/04/14 06:45:19;;;;;;;113.28;48.35;;;9.90;99.90;;;;;;5036279;28;20026;-66
2022/04/14 06:47:45;;;;;;;127.47;48.80;;;10.00;99.90;;;;;;5036502;28;20031;-66
2022/04/14 06:50:11;;;;;;;94.72;46.67;;;10.20;99.90;;;;;;5036228;28;20080;-66
2022/04/14 06:52:38;;;;;;;105.80;48.90;;;10.50;99.90;;;;;;5051544;28;20022;-66
2022/04/14 06:55:04;;;;;;;88.35;40.83;;;10.80;99.90;;;;;;5035706;28;20017;-65
2022/04/14 06:57:30;;;;;;;86.22;38.85;;;10.90;99.90;;;;;;5036074;28;20018;-66
2022/04/14 06:59:56;;;;;;;78.30;37.67;;;11.10;99.90;;;;;;5036355;28;20033;-66
2022/04/14 07:02:22;;;;;;;83.78;37.88;;;11.10;99.90;;;;;;5035742;28;20553;-66
2022/04/14 07:04:48;;;;;;;76.25;36.97;;;11.10;99.90;;;;;;5036297;28;20386;-66
2022/04/14 07:07:14;;;;;;;70.25;34.25;;;11.30;99.90;;;;;;5035989;28;20390;-66
2022/04/14 07:09:39;;;;;;;73.68;35.08;;;11.20;99.90;;;;;;5035903;28;20025;-66
2022/04/14 07:12:06;;;;;;;62.45;33.45;;;11.40;99.90;;;;;;5035426;28;20021;-66
2022/04/14 07:14:32;;;;;;;77.57;34.72;;;11.50;99.90;;;;;;5035806;28;20489;-66
2022/04/14 07:16:58;;;;;;;64.28;33.20;;;11.50;99.90;;;;;;5035851;28;20026;-66
2022/04/14 07:19:24;;;;;;;74.55;33.85;;;11.50;99.90;;;;;;5035612;28;20025;-66
2022/04/14 07:21:50;;;;;;;73.93;33.33;;;11.60;99.90;;;;;;5051127;28;20121;-66
2022/04/14 07:24:16;;;;;;;60.05;29.35;;;11.80;99.90;;;;;;5035420;28;20029;-66
2022/04/14 07:26:42;;;;;;;55.08;29.85;;;11.90;99.90;;;;;;5036173;28;20075;-66
2022/04/14 07:29:07;;;;;;;61.60;30.08;;;11.80;99.90;;;;;;5035475;28;20033;-66
2022/04/14 07:31:33;;;;;;;66.93;28.98;;;11.80;99.90;;;;;;5035153;28;20035;-66
2022/04/14 07:33:59;;;;;;;48.13;26.80;;;11.90;99.90;;;;;;5035417;28;20056;-65
2022/04/14 07:36:25;;;;;;;59.05;26.45;;;11.90;99.90;;;;;;5035281;28;20396;-66
2022/04/14 07:38:51;;;;;;;43.95;26.23;;;12.00;99.90;;;;;;5034941;28;20022;-65
2022/04/14 07:41:17;;;;;;;43.53;25.85;;;12.10;99.90;;;;;;5035233;28;20478;-65
2022/04/14 07:43:42;;;;;;;49.20;26.17;;;12.30;99.90;;;;;;5035294;28;20059;-65
2022/04/14 07:46:08;;;;;;;52.13;25.88;;;12.20;99.90;;;;;;5035512;28;20029;-65
2022/04/14 07:48:34;;;;;;;47.60;25.40;;;12.10;99.90;;;;;;5035677;28;20029;-65
2022/04/14 07:51:01;;;;;;;49.03;25.60;;;12.20;99.90;;;;;;5035531;28;20036;-66
2022/04/14 07:53:27;;;;;;;43.42;23.80;;;12.50;99.90;;;;;;5034510;28;20030;-66
2022/04/14 07:55:53;;;;;;;52.53;26.08;;;12.60;99.90;;;;;;5035231;28;20038;-66
2022/04/14 07:58:20;;;;;;;45.25;23.50;;;12.70;99.90;;;;;;5033637;28;20018;-66
2022/04/14 08:00:47;;;;;;;55.38;26.63;;;12.70;99.90;;;;;;5035136;28;20079;-66
2022/04/14 08:03:13;;;;;;;45.22;24.30;;;12.80;99.90;;;;;;5034354;28;20493;-67
2022/04/14 08:05:46;;;;;;;41.30;24.65;;;12.80;99.90;;;;;;5035004;28;20034;-66
2022/04/14 08:08:21;;;;;;;49.70;25.50;;;12.80;99.90;;;;;;5035103;28;20021;-66
2022/04/14 08:10:48;;;;;;;40.50;23.27;;;12.90;99.90;;;;;;5034647;28;20029;-66
2022/04/14 08:13:16;;;;;;;46.45;24.40;;;13.10;99.90;;;;;;5034685;28;20026;-65
2022/04/14 08:15:42;;;;;;;45.03;24.25;;;13.20;99.90;;;;;;5034124;28;20072;-66
2022/04/14 08:18:08;;;;;;;43.88;24.15;;;13.40;99.90;;;;;;5034563;28;20021;-66
2022/04/14 08:20:35;;;;;;;46.05;22.98;;;13.60;99.90;;;;;;5034087;28;20029;-66
2022/04/14 08:23:02;;;;;;;42.75;22.30;;;13.60;99.90;;;;;;5034691;28;20540;-66
2022/04/14 08:25:32;;;;;;;39.42;22.23;;;13.80;99.90;;;;;;5034321;28;20074;-66
2022/04/14 08:27:59;;;;;;;48.08;23.58;;;13.90;99.90;;;;;;5034380;28;20512;-66
2022/04/14 08:30:26;;;;;;;49.13;22.52;;;13.80;99.90;;;;;;5034208;28;20421;-66
2022/04/14 08:32:52;;;;;;;42.55;24.13;;;13.60;99.90;;;;;;5034268;28;20096;-65
2022/04/14 08:35:20;;;;;;;46.47;22.30;;;13.50;99.90;;;;;;5033724;28;20025;-66
2022/04/14 08:37:46;;;;;;;45.55;23.42;;;13.20;99.90;;;;;;5034459;28;20099;-65
2022/04/14 08:40:14;;;;;;;46.95;24.27;;;13.10;99.90;;;;;;5033611;28;20059;-66
2022/04/14 08:42:42;;;;;;;49.38;23.83;;;13.00;99.90;;;;;;5034345;28;20021;-65
2022/04/14 08:45:12;;;;;;;37.28;22.65;;;13.10;99.90;;;;;;5033898;28;20035;-65
2022/04/14 08:47:41;;;;;;;51.45;26.38;;;12.90;99.90;;;;;;5033866;28;20477;-66
2022/04/14 08:50:13;;;;;;;42.00;24.25;;;12.70;99.90;;;;;;5033813;28;20029;-65
2022/04/14 08:52:40;;;;;;;57.97;24.85;;;12.80;99.90;;;;;;5034191;28;20023;-65
2022/04/14 08:55:08;;;;;;;51.25;25.45;;;13.10;99.90;;;;;;5033652;28;20013;-66
2022/04/14 08:57:35;;;;;;;42.30;23.60;;;13.40;99.90;;;;;;5033723;28;20025;-66
2022/04/14 09:00:02;;;;;;;46.47;23.65;;;13.60;99.90;;;;;;5033817;28;20023;-66
2022/04/14 09:02:28;;;;;;;50.10;23.40;;;13.70;99.90;;;;;;5033717;28;20025;-65
2022/04/14 09:04:57;;;;;;;41.63;20.52;;;14.10;99.90;;;;;;5033991;28;20080;-65
2022/04/14 09:07:23;;;;;;;42.15;22.42;;;14.30;99.90;;;;;;5033079;28;20025;-66
2022/04/14 09:09:48;;;;;;;42.55;20.13;;;14.40;99.90;;;;;;5033617;28;20378;-66
2022/04/14 09:12:15;;;;;;;37.10;19.30;;;14.60;99.90;;;;;;5033663;28;20017;-65
2022/04/14 09:14:40;;;;;;;36.78;20.35;;;14.90;99.90;;;;;;5033575;28;20167;-65
2022/04/14 09:17:07;;;;;;;37.67;18.70;;;14.90;99.90;;;;;;5030870;28;20562;-66
2022/04/14 09:19:35;;;;;;;33.72;17.90;;;14.70;99.90;;;;;;5033037;28;20048;-65
2022/04/14 09:22:08;;;;;;;31.88;18.77;;;14.60;99.90;;;;;;5018253;28;20025;-65
2022/04/14 09:24:50;;;;;;;35.90;18.70;;;14.60;99.90;;;;;;5013723;28;20482;-65
2022/04/14 09:27:27;;;;;;;35.13;17.88;;;14.40;99.90;;;;;;5013164;28;20798;-66
2022/04/14 09:29:57;;;;;;;29.42;16.77;;;14.30;99.90;;;;;;5013663;28;20113;-65
2022/04/14 09:32:42;;;;;;;31.88;16.63;;;14.30;99.90;;;;;;5026967;28;20074;-66
2022/04/14 09:35:19;;;;;;;31.73;17.00;;;14.30;99.90;;;;;;5033332;28;20025;-65
2022/04/14 09:37:45;;;;;;;42.22;21.08;;;14.50;99.90;;;;;;5033330;28;20022;-65
2022/04/14 09:40:12;;;;;;;41.17;20.48;;;14.30;99.90;;;;;;5031832;28;20036;-67
2022/04/14 09:42:40;;;;;;;45.75;19.80;;;14.10;99.90;;;;;;5033197;28;20047;-65
2022/04/14 09:45:19;;;;;;;34.95;19.77;;;14.00;99.90;;;;;;5033219;28;20029;-65
2022/04/14 09:47:47;;;;;;;44.05;17.92;;;14.10;99.90;;;;;;5036997;28;20029;-65
2022/04/14 09:50:39;;;;;;;37.05;18.35;;;14.00;99.90;;;;;;5037229;28;20032;-65
2022/04/14 09:53:11;;;;;;;42.30;17.80;;;13.80;99.90;;;;;;5037342;28;20022;-65
2022/04/14 09:55:42;;;;;;;34.03;17.65;;;13.70;99.90;;;;;;5036723;28;20025;-65
2022/04/14 09:58:17;;;;;;;33.95;16.48;;;13.80;99.90;;;;;;5037292;28;20532;-65
2022/04/14 10:00:47;;;;;;;30.30;15.18;;;13.80;99.90;;;;;;5037184;28;20489;-65
2022/04/14 10:03:12;;;;;;;29.73;15.05;;;14.00;99.90;;;;;;5037316;28;20040;-66
2022/04/14 10:05:39;;;;;;;26.70;14.05;;;14.10;99.90;;;;;;5036574;28;20420;-65
2022/04/14 10:08:08;;;;;;;37.33;14.90;;;14.20;99.90;;;;;;5037261;28;20025;-65
2022/04/14 10:10:45;;;;;;;32.08;15.52;;;14.10;99.90;;;;;;5037123;28;20028;-65
2022/04/14 10:13:12;;;;;;;28.13;13.30;;;14.20;99.90;;;;;;5036906;28;20022;-66
2022/04/14 10:15:47;;;;;;;29.65;12.30;;;14.10;99.90;;;;;;5036033;28;20018;-66
2022/04/14 10:18:14;;;;;;;22.33;11.13;;;14.00;99.90;;;;;;5037121;28;20373;-65
2022/04/14 10:20:44;;;;;;;22.73;10.23;;;13.70;99.90;;;;;;5036369;28;20042;-65
2022/04/14 10:23:12;;;;;;;22.05;10.52;;;13.50;99.90;;;;;;5036811;28;20079;-66
2022/04/14 10:25:39;;;;;;;23.35;10.80;;;13.30;99.90;;;;;;5036969;28;20541;-66
2022/04/14 10:28:11;;;;;;;28.35;10.68;;;13.20;99.90;;;;;;5036962;28;20036;-65
2022/04/14 10:30:37;;;;;;;14.32;6.28;;;13.30;99.90;;;;;;5036461;28;20056;-65
2022/04/14 10:33:03;;;;;;;13.48;5.45;;;13.50;99.90;;;;;;5036018;28;20053;-66
2022/04/14 10:35:30;;;;;;;19.30;6.15;;;13.60;99.90;;;;;;5036624;28;20091;-66
2022/04/14 10:38:17;;;;;;;15.48;6.78;;;13.70;99.90;;;;;;5036447;28;20049;-65
2022/04/14 10:40:47;;;;;;;19.45;7.78;;;13.40;99.90;;;;;;5036663;28;20067;-65
2022/04/14 10:43:20;;;;;;;22.45;8.23;;;13.40;99.90;;;;;;5036540;28;20072;-66
2022/04/14 10:45:54;;;;;;;18.67;7.18;;;13.40;99.90;;;;;;5036964;28;20072;-66
2022/04/14 10:48:31;;;;;;;31.98;9.63;;;13.60;99.90;;;;;;5036372;28;20620;-66
2022/04/14 10:51:28;;;;;;;27.88;9.02;;;14.00;99.90;;;;;;5036436;28;20034;-66
2022/04/14 10:54:06;;;;;;;19.17;7.93;;;13.60;99.90;;;;;;5036403;28;20018;-66
2022/04/14 10:56:38;;;;;;;22.38;7.85;;;13.10;99.90;;;;;;5036365;28;20378;-66
2022/04/14 10:59:19;;;;;;;23.92;7.32;;;12.90;99.90;;;;;;5035561;28;20049;-66
2022/04/14 11:01:48;;;;;;;28.80;8.73;;;12.90;99.90;;;;;;5036201;28;20021;-66
2022/04/14 11:04:25;;;;;;;25.45;7.88;;;12.80;99.90;;;;;;5036160;28;20398;-66
2022/04/14 11:07:01;;;;;;;24.60;8.52;;;12.90;99.90;;;;;;5036034;28;20030;-66
2022/04/14 11:09:41;;;;;;;21.83;7.85;;;12.90;99.90;;;;;;5036525;28;20025;-66
2022/04/14 11:12:32;;;;;;;21.45;8.27;;;13.00;99.90;;;;;;5035624;28;20359;-66
2022/04/14 11:15:00;;;;;;;20.42;8.25;;;13.00;99.90;;;;;;5036101;28;20014;-66
2022/04/14 11:20:19;;;;;;;18.25;8.88;;;12.70;99.90;;;;;;5035612;28;20036;-68
2022/04/14 11:23:06;;;;;;;19.92;7.72;;;12.80;99.90;;;;;;5035873;28;20116;-69
2022/04/14 11:25:49;;;;;;;22.38;6.60;;;12.80;99.90;;;;;;5035756;28;20080;-68
2022/04/14 11:28:27;;;;;;;26.23;7.15;;;12.70;99.90;;;;;;5035362;28;20033;-69
2022/04/14 11:30:55;;;;;;;15.15;5.55;;;12.80;99.90;;;;;;5035669;28;20397;-68
2022/04/14 11:33:28;;;;;;;22.60;6.53;;;12.50;99.90;;;;;;5035664;28;20100;-68
2022/04/14 11:36:05;;;;;;;14.07;5.15;;;12.30;99.90;;;;;;5035724;28;20020;-68
2022/04/14 11:38:53;;;;;;;13.57;5.38;;;12.30;99.90;;;;;;5035613;28;20033;-68
2022/04/14 11:41:37;;;;;;;19.75;5.35;;;12.70;99.90;;;;;;5035727;28;20022;-68
2022/04/14 11:44:10;;;;;;;13.38;3.67;;;13.10;99.90;;;;;;5034691;28;20026;-68
2022/04/14 11:46:38;;;;;;;25.38;4.65;;;13.00;99.90;;;;;;5034229;28;20520;-69
2022/04/14 11:49:04;;;;;;;26.55;4.18;;;13.00;99.90;;;;;;5035098;28;20033;-69
2022/04/14 11:51:30;;;;;;;21.73;4.45;;;13.30;99.90;;;;;;5034953;28;20047;-68
2022/04/14 11:53:56;;;;;;;15.55;3.88;;;13.10;99.90;;;;;;5035190;28;20108;-69
2022/04/14 11:56:25;;;;;;;15.52;3.17;;;12.60;99.90;;;;;;5036759;28;20471;-69
2022/04/14 11:58:52;;;;;;;19.17;3.35;;;12.40;99.90;;;;;;5036336;28;20014;-69
2022/04/14 12:01:18;;;;;;;23.35;3.58;;;13.00;99.90;;;;;;5035503;28;20028;-69
2022/04/14 12:03:44;;;;;;;27.25;3.50;;;12.60;99.90;;;;;;5034974;28;20029;-68
2022/04/14 12:06:16;;;;;;;24.15;4.03;;;11.90;99.90;;;;;;5035276;28;20018;-68
2022/04/14 12:08:51;;;;;;;19.73;4.60;;;12.00;99.90;;;;;;5036610;28;20025;-69
2022/04/14 12:11:17;;;;;;;27.10;4.07;;;12.40;99.90;;;;;;5035160;28;20103;-69
2022/04/14 12:13:43;;;;;;;16.40;4.07;;;13.10;99.90;;;;;;5035482;28;20474;-69
2022/04/14 12:16:10;;;;;;;15.05;3.30;;;13.30;99.90;;;;;;5034703;28;20079;-69
2022/04/14 12:18:40;;;;;;;21.52;3.78;;;13.20;99.90;;;;;;5035286;28;20072;-69
2022/04/14 12:21:16;;;;;;;18.05;3.75;;;12.60;99.90;;;;;;5035143;28;20104;-69
2022/04/14 12:23:47;;;;;;;22.38;4.05;;;12.40;99.90;;;;;;5033761;28;20029;-69
2022/04/14 12:26:13;;;;;;;25.35;3.30;;;11.80;99.90;;;;;;5035380;28;20470;-68
2022/04/14 12:28:38;;;;;;;19.60;3.45;;;11.50;99.90;;;;;;5035389;28;20032;-68
2022/04/14 12:31:11;;;;;;;26.17;4.03;;;11.40;99.90;;;;;;5034791;28;20033;-68
2022/04/14 12:33:37;;;;;;;22.80;2.85;;;11.30;99.90;;;;;;5035694;28;20022;-69